createdAt,value
2022-10-05T00:00:14.588Z,69.09
2022-10-05T00:01:14.574Z,69.91
2022-10-05T00:02:14.664Z,70.94
2022-10-05T00:03:14.571Z,70.63
2022-10-05T00:04:14.730Z,70.84
2022-10-05T00:05:14.602Z,70.22
2022-10-05T00:06:14.521Z,68.88
2022-10-05T00:07:14.570Z,69.09
2022-10-05T00:08:14.500Z,69.70
2022-10-05T00:09:14.545Z,70.84
2022-10-05T00:10:14.492Z,70.84
2022-10-05T00:11:14.467Z,70.94
2022-10-05T00:12:14.457Z,71.55
2022-10-05T00:13:14.440Z,71.45
2022-10-05T00:14:14.439Z,71.01
2022-10-05T00:15:14.427Z,70.63
2022-10-05T00:16:14.435Z,69.91
2022-10-05T00:17:14.397Z,69.19
2022-10-05T00:18:14.403Z,70.84
2022-10-05T00:19:14.374Z,71.76
2022-10-05T00:20:14.366Z,70.12
2022-10-05T00:21:14.361Z,69.26
2022-10-05T00:22:14.345Z,69.26
2022-10-05T00:23:14.357Z,69.88
2022-10-05T00:24:14.333Z,69.50
2022-10-05T00:25:14.310Z,69.19
2022-10-05T00:26:14.308Z,70.73
2022-10-05T00:27:14.346Z,70.42
2022-10-05T00:28:14.349Z,69.57
2022-10-05T00:29:14.270Z,68.99
2022-10-05T00:30:14.267Z,68.96
2022-10-05T00:31:14.294Z,69.57
2022-10-05T00:32:14.233Z,68.78
2022-10-05T00:33:14.228Z,68.99
2022-10-05T00:34:14.208Z,68.88
2022-10-05T00:35:14.203Z,68.57
2022-10-05T00:36:14.191Z,69.09
2022-10-05T00:37:14.193Z,69.60
2022-10-05T00:38:14.165Z,69.09
2022-10-05T00:39:14.311Z,69.09
2022-10-05T00:40:14.146Z,69.60
2022-10-05T00:41:14.134Z,69.19
2022-10-05T00:42:14.133Z,69.19
2022-10-05T00:43:14.112Z,69.02
2022-10-05T00:44:14.100Z,69.09
2022-10-05T00:45:14.149Z,71.04
2022-10-05T00:46:14.152Z,71.55
2022-10-05T00:47:14.068Z,71.55
2022-10-05T00:48:14.059Z,70.84
2022-10-05T00:49:14.055Z,69.40
2022-10-05T00:50:14.036Z,69.09
2022-10-05T00:51:14.109Z,70.73
2022-10-05T00:52:14.047Z,71.14
2022-10-05T00:53:14.002Z,71.55
2022-10-05T00:54:18.189Z,70.97
2022-10-05T00:55:14.005Z,70.12
2022-10-05T00:56:13.970Z,69.53
2022-10-05T00:57:14.003Z,68.57
2022-10-05T00:58:13.945Z,68.57
2022-10-05T00:59:13.939Z,68.78
2022-10-05T01:00:13.924Z,69.29
2022-10-05T01:01:14.024Z,69.81
2022-10-05T01:02:14.029Z,69.70
2022-10-05T01:03:13.969Z,68.78
2022-10-05T01:04:13.884Z,69.09
2022-10-05T01:05:13.868Z,69.70
2022-10-05T01:06:13.859Z,69.29
2022-10-05T01:07:13.848Z,69.40
2022-10-05T01:08:13.835Z,70.15
2022-10-05T01:09:13.908Z,69.81
2022-10-05T01:10:13.816Z,68.68
2022-10-05T01:11:13.829Z,69.09
2022-10-05T01:12:13.792Z,68.57
2022-10-05T01:13:13.784Z,68.78
2022-10-05T01:14:13.773Z,69.91
2022-10-05T01:15:13.790Z,68.88
2022-10-05T01:16:13.836Z,68.57
2022-10-05T01:17:13.850Z,68.54
2022-10-05T01:18:13.731Z,67.93
2022-10-05T01:19:13.720Z,69.09
2022-10-05T01:20:13.713Z,69.26
2022-10-05T01:21:13.714Z,68.78
2022-10-05T01:22:13.683Z,68.37
2022-10-05T01:23:13.685Z,67.62
2022-10-05T01:24:13.664Z,64.23
2022-10-05T01:25:13.663Z,67.00
2022-10-05T01:26:13.646Z,66.90
2022-10-05T01:27:13.701Z,66.60
2022-10-05T01:28:13.699Z,67.41
2022-10-05T01:29:13.610Z,65.98
2022-10-05T01:30:13.603Z,68.37
2022-10-05T01:31:13.659Z,68.65
2022-10-05T01:32:13.597Z,69.09
2022-10-05T01:33:13.637Z,68.37
2022-10-05T01:34:13.552Z,65.98
2022-10-05T01:35:13.542Z,66.73
2022-10-05T01:36:13.532Z,68.57
2022-10-05T01:37:13.520Z,68.78
2022-10-05T01:38:13.525Z,68.99
2022-10-05T01:39:13.570Z,69.19
2022-10-05T01:40:13.489Z,68.99
2022-10-05T01:41:13.485Z,68.48
2022-10-05T01:42:13.464Z,68.75
2022-10-05T01:43:13.519Z,68.78
2022-10-05T01:44:13.464Z,68.99
2022-10-05T01:45:13.501Z,69.57
2022-10-05T01:46:13.465Z,69.50
2022-10-05T01:47:13.414Z,69.60
2022-10-05T01:48:13.398Z,68.48
2022-10-05T01:49:13.388Z,66.52
2022-10-05T01:50:13.386Z,66.49
2022-10-05T01:51:13.398Z,66.60
2022-10-05T01:52:13.365Z,65.80
2022-10-05T01:53:13.343Z,67.00
2022-10-05T01:54:13.332Z,66.93
2022-10-05T01:55:13.322Z,65.91
2022-10-05T01:56:13.313Z,66.80
2022-10-05T01:57:13.363Z,66.22
2022-10-05T01:58:13.296Z,64.78
2022-10-05T01:59:13.320Z,66.22
2022-10-05T02:00:13.266Z,67.86
2022-10-05T02:01:13.371Z,66.52
2022-10-05T02:02:13.374Z,65.09
2022-10-05T02:03:13.321Z,63.85
2022-10-05T02:04:21.188Z,64.67
2022-10-05T02:05:14.216Z,65.29
2022-10-05T02:06:13.274Z,65.60
2022-10-05T02:07:13.290Z,66.83
2022-10-05T02:08:13.178Z,65.94
2022-10-05T02:09:13.197Z,67.38
2022-10-05T02:10:13.154Z,66.25
2022-10-05T02:11:13.146Z,66.35
2022-10-05T02:12:13.135Z,66.25
2022-10-05T02:13:13.137Z,66.86
2022-10-05T02:14:13.181Z,67.68
2022-10-05T02:15:13.159Z,66.14
2022-10-05T02:16:13.208Z,66.01
2022-10-05T02:17:13.106Z,66.01
2022-10-05T02:18:13.075Z,67.14
2022-10-05T02:19:13.062Z,68.06
2022-10-05T02:20:13.113Z,66.93
2022-10-05T02:21:13.037Z,67.65
2022-10-05T02:22:13.024Z,67.65
2022-10-05T02:23:13.035Z,67.96
2022-10-05T02:24:13.007Z,66.66
2022-10-05T02:25:13.032Z,65.91
2022-10-05T02:26:13.071Z,66.22
2022-10-05T02:27:12.993Z,64.67
2022-10-05T02:28:13.031Z,63.21
2022-10-05T02:29:12.981Z,64.03
2022-10-05T02:30:16.633Z,64.67
2022-10-05T02:31:13.034Z,65.91
2022-10-05T02:32:12.922Z,64.78
2022-10-05T02:33:12.905Z,63.93
2022-10-05T02:34:12.912Z,64.88
2022-10-05T02:35:12.886Z,64.88
2022-10-05T02:36:12.875Z,64.78
2022-10-05T02:37:12.864Z,64.47
2022-10-05T02:38:12.860Z,65.91
2022-10-05T02:39:12.844Z,67.65
2022-10-05T02:40:12.840Z,68.99
2022-10-05T02:41:12.820Z,68.37
2022-10-05T02:42:12.811Z,66.22
2022-10-05T02:43:12.801Z,66.11
2022-10-05T02:44:12.813Z,66.01
2022-10-05T02:45:12.777Z,65.80
2022-10-05T02:46:12.826Z,65.60
2022-10-05T02:47:12.778Z,64.88
2022-10-05T02:48:12.739Z,66.31
2022-10-05T02:49:12.731Z,66.01
2022-10-05T02:50:12.789Z,68.16
2022-10-05T02:51:12.718Z,66.93
2022-10-05T02:52:12.700Z,68.27
2022-10-05T02:53:12.690Z,68.19
2022-10-05T02:54:12.693Z,67.86
2022-10-05T02:55:12.662Z,68.19
2022-10-05T02:56:12.783Z,68.16
2022-10-05T02:57:12.646Z,67.38
2022-10-05T02:58:12.633Z,66.35
2022-10-05T02:59:12.624Z,65.42
2022-10-05T03:00:12.608Z,65.19
2022-10-05T03:01:12.732Z,65.91
2022-10-05T03:02:12.711Z,64.88
2022-10-05T03:03:12.605Z,66.31
2022-10-05T03:04:12.616Z,67.58
2022-10-05T03:05:12.569Z,68.19
2022-10-05T03:06:12.558Z,67.38
2022-10-05T03:07:12.534Z,68.71
2022-10-05T03:08:12.585Z,69.02
2022-10-05T03:09:12.511Z,67.27
2022-10-05T03:10:12.502Z,66.14
2022-10-05T03:11:12.497Z,67.27
2022-10-05T03:12:12.494Z,67.17
2022-10-05T03:13:12.470Z,65.91
2022-10-05T03:14:12.534Z,65.09
2022-10-05T03:15:12.442Z,64.67
2022-10-05T03:16:12.469Z,64.88
2022-10-05T03:17:12.433Z,65.09
2022-10-05T03:18:12.414Z,66.52
2022-10-05T03:19:12.425Z,67.76
2022-10-05T03:20:12.400Z,64.78
2022-10-05T03:21:12.380Z,63.06
2022-10-05T03:22:12.383Z,65.01
2022-10-05T03:23:12.361Z,65.09
2022-10-05T03:24:12.346Z,64.29
2022-10-05T03:25:12.339Z,64.98
2022-10-05T03:26:12.401Z,64.26
2022-10-05T03:27:12.367Z,63.03
2022-10-05T03:28:12.388Z,63.27
2022-10-05T03:29:12.297Z,64.78
2022-10-05T03:30:12.279Z,66.04
2022-10-05T03:31:12.318Z,65.32
2022-10-05T03:32:12.317Z,64.40
2022-10-05T03:33:12.249Z,64.70
2022-10-05T03:34:12.250Z,64.73
2022-10-05T03:35:12.246Z,64.53
2022-10-05T03:36:12.215Z,65.05
2022-10-05T03:37:12.202Z,66.04
2022-10-05T03:38:12.302Z,66.14
2022-10-05T03:39:12.185Z,66.04
2022-10-05T03:40:12.185Z,65.42
2022-10-05T03:41:12.226Z,64.60
2022-10-05T03:42:12.152Z,64.09
2022-10-05T03:43:12.139Z,65.63
2022-10-05T03:44:12.184Z,66.04
2022-10-05T03:45:12.119Z,68.30
2022-10-05T03:46:12.198Z,66.14
2022-10-05T03:47:12.095Z,65.94
2022-10-05T03:48:12.086Z,66.55
2022-10-05T03:49:12.168Z,65.94
2022-10-05T03:50:12.064Z,65.22
2022-10-05T03:51:12.093Z,65.63
2022-10-05T03:52:12.052Z,64.09
2022-10-05T03:53:12.029Z,64.50
2022-10-05T03:54:12.019Z,63.98
2022-10-05T03:55:12.056Z,64.09
2022-10-05T03:56:12.005Z,63.98
2022-10-05T03:57:11.990Z,64.40
2022-10-05T03:58:12.008Z,64.91
2022-10-05T03:59:11.960Z,63.96
2022-10-05T04:00:11.951Z,66.04
2022-10-05T04:01:12.033Z,64.81
2022-10-05T04:02:11.954Z,65.01
2022-10-05T04:03:11.934Z,65.94
2022-10-05T04:04:11.905Z,67.58
2022-10-05T04:05:11.922Z,68.19
2022-10-05T04:06:11.890Z,68.19
2022-10-05T04:07:12.149Z,67.61
2022-10-05T04:08:12.071Z,65.94
2022-10-05T04:09:11.863Z,65.32
2022-10-05T04:10:11.844Z,64.09
2022-10-05T04:11:11.831Z,64.29
2022-10-05T04:12:11.827Z,63.06
2022-10-05T04:13:11.813Z,63.34
2022-10-05T04:14:11.800Z,63.17
2022-10-05T04:15:16.457Z,64.37
2022-10-05T04:16:12.848Z,64.26
2022-10-05T04:17:11.770Z,64.88
2022-10-05T04:18:11.755Z,64.09
2022-10-05T04:19:11.797Z,63.34
2022-10-05T04:20:11.753Z,64.47
2022-10-05T04:21:11.722Z,65.42
2022-10-05T04:22:11.710Z,64.57
2022-10-05T04:23:11.728Z,64.37
2022-10-05T04:24:11.692Z,63.85
2022-10-05T04:25:11.723Z,63.89
2022-10-05T04:26:11.760Z,63.54
2022-10-05T04:27:11.660Z,63.96
2022-10-05T04:28:11.749Z,65.29
2022-10-05T04:29:11.634Z,65.19
2022-10-05T04:30:11.636Z,64.70
2022-10-05T04:31:11.703Z,63.54
2022-10-05T04:32:11.662Z,63.13
2022-10-05T04:33:11.811Z,64.16
2022-10-05T04:34:11.581Z,64.19
2022-10-05T04:35:11.586Z,64.19
2022-10-05T04:36:11.553Z,63.13
2022-10-05T04:37:11.545Z,63.24
2022-10-05T04:38:11.552Z,63.24
2022-10-05T04:39:11.546Z,63.34
2022-10-05T04:40:11.517Z,64.06
2022-10-05T04:41:11.514Z,63.96
2022-10-05T04:42:11.496Z,63.13
2022-10-05T04:43:11.482Z,62.73
2022-10-05T04:44:11.529Z,61.70
2022-10-05T04:45:11.468Z,61.18
2022-10-05T04:46:11.483Z,60.77
2022-10-05T04:47:11.486Z,62.01
2022-10-05T04:48:11.424Z,62.01
2022-10-05T04:49:11.442Z,62.62
2022-10-05T04:50:11.446Z,61.80
2022-10-05T04:51:11.407Z,61.49
2022-10-05T04:52:11.391Z,60.54
2022-10-05T04:53:11.374Z,60.85
2022-10-05T04:54:11.360Z,60.95
2022-10-05T04:55:11.444Z,61.46
2022-10-05T04:56:11.344Z,61.57
2022-10-05T04:57:11.339Z,61.57
2022-10-05T04:58:11.317Z,61.36
2022-10-05T04:59:11.307Z,60.95
2022-10-05T05:00:11.294Z,61.67
2022-10-05T05:01:11.347Z,62.08
2022-10-05T05:02:11.298Z,62.59
2022-10-05T05:03:11.374Z,62.49
2022-10-05T05:04:11.302Z,61.80
2022-10-05T05:05:11.271Z,62.18
2022-10-05T05:06:18.727Z,61.57
2022-10-05T05:07:12.221Z,61.57
2022-10-05T05:08:11.305Z,61.46
2022-10-05T05:09:11.212Z,62.08
2022-10-05T05:10:11.181Z,61.74
2022-10-05T05:11:15.128Z,61.77
2022-10-05T05:12:12.160Z,61.57
2022-10-05T05:13:11.154Z,61.67
2022-10-05T05:14:11.164Z,61.67
2022-10-05T05:15:11.138Z,61.57
2022-10-05T05:16:11.179Z,61.05
2022-10-05T05:17:13.329Z,61.16
2022-10-05T05:18:11.094Z,61.77
2022-10-05T05:19:11.086Z,62.49
2022-10-05T05:20:11.232Z,62.29
2022-10-05T05:21:11.068Z,60.85
2022-10-05T05:22:11.051Z,61.67
2022-10-05T05:23:11.049Z,60.75
2022-10-05T05:24:11.095Z,60.21
2022-10-05T05:25:11.025Z,60.41
2022-10-05T05:26:11.035Z,61.54
2022-10-05T05:27:11.053Z,62.08
2022-10-05T05:28:11.050Z,61.67
2022-10-05T05:29:10.978Z,61.05
2022-10-05T05:30:10.963Z,61.74
2022-10-05T05:31:10.991Z,61.98
2022-10-05T05:32:10.982Z,62.59
2022-10-05T05:33:10.929Z,62.90
2022-10-05T05:34:10.920Z,63.42
2022-10-05T05:35:10.915Z,61.87
2022-10-05T05:36:10.901Z,61.46
2022-10-05T05:37:10.901Z,61.77
2022-10-05T05:38:10.883Z,61.16
2022-10-05T05:39:10.868Z,61.87
2022-10-05T05:40:10.859Z,63.10
2022-10-05T05:41:10.845Z,62.39
2022-10-05T05:42:10.831Z,62.59
2022-10-05T05:43:10.860Z,62.90
2022-10-05T05:44:10.826Z,63.31
2022-10-05T05:45:10.802Z,64.03
2022-10-05T05:46:10.828Z,61.60
2022-10-05T05:47:11.187Z,59.23
2022-10-05T05:48:10.767Z,60.54
2022-10-05T05:49:10.772Z,60.95
2022-10-05T05:50:10.777Z,62.36
2022-10-05T05:51:10.737Z,63.07
2022-10-05T05:52:10.726Z,63.07
2022-10-05T05:53:10.717Z,62.26
2022-10-05T05:54:10.704Z,62.56
2022-10-05T05:55:10.700Z,62.87
2022-10-05T05:56:10.732Z,63.18
2022-10-05T05:57:10.671Z,62.46
2022-10-05T05:58:10.721Z,62.56
2022-10-05T05:59:10.737Z,61.95
2022-10-05T06:00:10.657Z,61.54
2022-10-05T06:01:25.048Z,61.44
2022-10-05T06:02:11.784Z,61.33
2022-10-05T06:03:10.775Z,62.87
2022-10-05T06:04:10.592Z,62.98
2022-10-05T06:05:10.581Z,64.00
2022-10-05T06:06:10.581Z,63.18
2022-10-05T06:07:10.559Z,64.20
2022-10-05T06:08:10.618Z,63.28
2022-10-05T06:09:10.540Z,62.05
2022-10-05T06:10:10.535Z,63.07
2022-10-05T06:11:10.621Z,62.05
2022-10-05T06:12:10.507Z,63.18
2022-10-05T06:13:10.493Z,62.87
2022-10-05T06:14:10.549Z,63.18
2022-10-05T06:15:10.527Z,61.33
2022-10-05T06:16:10.496Z,61.44
2022-10-05T06:17:10.460Z,60.51
2022-10-05T06:18:10.436Z,61.33
2022-10-05T06:19:10.426Z,62.66
2022-10-05T06:20:10.478Z,59.89
2022-10-05T06:21:10.404Z,58.46
2022-10-05T06:22:10.408Z,59.59
2022-10-05T06:23:10.386Z,60.17
2022-10-05T06:24:10.371Z,59.89
2022-10-05T06:25:10.366Z,59.89
2022-10-05T06:26:10.993Z,58.67
2022-10-05T06:27:10.341Z,61.85
2022-10-05T06:28:10.464Z,64.07
2022-10-05T06:29:10.322Z,63.90
2022-10-05T06:30:10.305Z,62.12
2022-10-05T06:31:10.404Z,61.13
2022-10-05T06:32:10.382Z,60.89
2022-10-05T06:33:10.274Z,60.69
2022-10-05T06:34:10.263Z,59.46
2022-10-05T06:35:10.257Z,58.03
2022-10-05T06:36:10.240Z,57.92
2022-10-05T06:37:10.231Z,58.64
2022-10-05T06:38:10.297Z,57.59
2022-10-05T06:39:10.218Z,56.26
2022-10-05T06:40:10.196Z,54.21
2022-10-05T06:41:10.208Z,53.36
2022-10-05T06:42:10.175Z,53.44
2022-10-05T06:43:10.165Z,54.97
2022-10-05T06:44:10.225Z,52.90
2022-10-05T06:45:10.145Z,51.06
2022-10-05T06:46:10.173Z,51.54
2022-10-05T06:47:10.159Z,50.12
2022-10-05T06:48:10.181Z,49.58
2022-10-05T06:49:10.162Z,50.89
2022-10-05T06:50:10.090Z,50.94
2022-10-05T06:51:10.078Z,51.81
2022-10-05T06:52:10.149Z,48.81
2022-10-05T06:53:10.056Z,48.89
2022-10-05T06:54:10.048Z,50.29
2022-10-05T06:55:14.020Z,49.96
2022-10-05T06:56:10.028Z,48.41
2022-10-05T06:57:10.070Z,49.02
2022-10-05T06:58:10.016Z,51.42
2022-10-05T06:59:09.992Z,51.57
2022-10-05T07:00:09.980Z,54.00
2022-10-05T07:01:10.007Z,48.40
2022-10-05T07:02:09.979Z,47.41
2022-10-05T07:03:10.019Z,46.82
2022-10-05T07:04:09.967Z,45.28
2022-10-05T07:05:09.938Z,44.26
2022-10-05T07:06:09.914Z,45.52
2022-10-05T07:07:09.910Z,48.36
2022-10-05T07:08:09.895Z,48.77
2022-10-05T07:09:09.958Z,47.86
2022-10-05T07:10:09.876Z,45.89
2022-10-05T07:11:09.861Z,46.86
2022-10-05T07:12:09.860Z,43.20
2022-10-05T07:13:09.838Z,42.68
2022-10-05T07:14:09.838Z,41.14
2022-10-05T07:15:09.872Z,40.20
2022-10-05T07:16:09.868Z,40.20
2022-10-05T07:17:09.812Z,39.78
2022-10-05T07:18:09.827Z,41.36
2022-10-05T07:19:09.800Z,48.62
2022-10-05T07:20:09.765Z,52.23
2022-10-05T07:21:09.755Z,50.70
2022-10-05T07:22:09.750Z,51.43
2022-10-05T07:23:09.733Z,51.96
2022-10-05T07:24:09.732Z,51.62
2022-10-05T07:25:09.746Z,52.41
2022-10-05T07:26:09.699Z,52.99
2022-10-05T07:27:09.893Z,52.06
2022-10-05T07:28:09.792Z,54.86
2022-10-05T07:29:09.683Z,53.67
2022-10-05T07:30:09.658Z,49.84
2022-10-05T07:31:09.750Z,49.96
2022-10-05T07:32:09.631Z,53.72
2022-10-05T07:33:09.631Z,54.66
2022-10-05T07:34:09.636Z,54.89
2022-10-05T07:35:09.623Z,54.53
2022-10-05T07:36:09.590Z,54.64
2022-10-05T07:37:09.591Z,52.72
2022-10-05T07:38:09.566Z,50.77
2022-10-05T07:39:09.572Z,48.42
2022-10-05T07:40:09.596Z,48.70
2022-10-05T07:41:09.536Z,46.70
2022-10-05T07:42:09.521Z,43.77
2022-10-05T07:43:09.515Z,45.29
2022-10-05T07:44:12.732Z,43.46
2022-10-05T07:45:09.511Z,47.00
2022-10-05T07:46:09.580Z,48.44
2022-10-05T07:47:09.483Z,46.80
2022-10-05T07:48:09.462Z,45.14
2022-10-05T07:49:09.451Z,48.17
2022-10-05T07:50:09.436Z,48.43
2022-10-05T07:51:09.461Z,42.15
2022-10-05T07:52:09.472Z,43.44
2022-10-05T07:53:09.410Z,45.07
2022-10-05T07:54:09.397Z,47.67
2022-10-05T07:55:09.403Z,45.06
2022-10-05T07:56:09.386Z,49.49
2022-10-05T07:57:09.360Z,46.37
2022-10-05T07:58:09.365Z,49.47
2022-10-05T07:59:09.344Z,48.03
2022-10-05T08:00:09.334Z,43.51
2022-10-05T08:01:09.316Z,46.55
2022-10-05T08:02:09.434Z,45.18
2022-10-05T08:03:09.348Z,44.45
2022-10-05T08:04:09.296Z,45.36
2022-10-05T08:05:09.325Z,50.80
2022-10-05T08:06:09.261Z,50.37
2022-10-05T08:07:09.283Z,47.38
2022-10-05T08:08:09.242Z,47.88
2022-10-05T08:09:09.274Z,48.69
2022-10-05T08:10:09.231Z,47.58
2022-10-05T08:11:09.263Z,49.16
2022-10-05T08:12:09.310Z,48.89
2022-10-05T08:13:09.187Z,48.86
2022-10-05T08:14:09.176Z,49.65
2022-10-05T08:15:09.173Z,46.53
2022-10-05T08:16:09.230Z,44.98
2022-10-05T08:17:09.148Z,46.59
2022-10-05T08:18:09.138Z,43.26
2022-10-05T08:19:09.122Z,42.98
2022-10-05T08:20:09.125Z,40.59
2022-10-05T08:21:09.109Z,42.13
2022-10-05T08:22:09.099Z,42.41
2022-10-05T08:23:09.103Z,43.60
2022-10-05T08:24:09.069Z,45.53
2022-10-05T08:25:09.056Z,43.63
2022-10-05T08:26:09.093Z,43.55
2022-10-05T08:27:09.029Z,43.95
2022-10-05T08:28:09.070Z,46.17
2022-10-05T08:29:13.500Z,46.73
2022-10-05T08:30:09.014Z,45.02
2022-10-05T08:31:09.071Z,41.91
2022-10-05T08:32:08.975Z,43.40
2022-10-05T08:33:08.965Z,44.90
2022-10-05T08:34:08.956Z,44.17
2022-10-05T08:35:08.981Z,43.12
2022-10-05T08:36:08.933Z,42.52
2022-10-05T08:37:08.925Z,43.85
2022-10-05T08:38:09.126Z,42.13
2022-10-05T08:39:08.923Z,45.97
2022-10-05T08:40:08.887Z,50.07
2022-10-05T08:41:08.898Z,48.18
2022-10-05T08:42:08.868Z,46.67
2022-10-05T08:43:08.864Z,45.78
2022-10-05T08:44:08.852Z,44.83
2022-10-05T08:45:08.835Z,48.26
2022-10-05T08:46:08.929Z,46.75
2022-10-05T08:47:08.828Z,49.55
2022-10-05T08:48:08.802Z,49.32
2022-10-05T08:49:08.789Z,49.62
2022-10-05T08:50:08.777Z,49.70
2022-10-05T08:51:08.766Z,49.22
2022-10-05T08:52:08.757Z,51.76
2022-10-05T08:53:08.979Z,50.45
2022-10-05T08:54:08.735Z,52.19
2022-10-05T08:55:08.777Z,50.50
2022-10-05T08:56:08.714Z,50.30
2022-10-05T08:57:08.698Z,53.90
2022-10-05T08:58:08.704Z,52.77
2022-10-05T08:59:08.766Z,50.56
2022-10-05T09:00:08.669Z,49.75
2022-10-05T09:01:08.703Z,52.26
2022-10-05T09:02:08.710Z,51.48
2022-10-05T09:03:08.636Z,52.06
2022-10-05T09:04:08.644Z,51.76
2022-10-05T09:05:08.673Z,51.76
2022-10-05T09:06:08.602Z,51.76
2022-10-05T09:07:08.617Z,49.44
2022-10-05T09:08:08.597Z,51.38
2022-10-05T09:09:08.581Z,54.48
2022-10-05T09:10:08.569Z,52.39
2022-10-05T09:11:08.595Z,52.59
2022-10-05T09:12:08.545Z,50.27
2022-10-05T09:13:08.537Z,52.47
2022-10-05T09:14:08.551Z,53.07
2022-10-05T09:15:24.960Z,52.17
2022-10-05T09:16:09.562Z,52.04
2022-10-05T09:17:08.485Z,51.61
2022-10-05T09:18:08.745Z,54.60
2022-10-05T09:19:08.465Z,51.36
2022-10-05T09:20:08.455Z,48.95
2022-10-05T09:21:08.442Z,49.07
2022-10-05T09:22:08.445Z,51.06
2022-10-05T09:23:08.416Z,51.36
2022-10-05T09:24:08.414Z,48.77
2022-10-05T09:25:08.400Z,47.86
2022-10-05T09:26:08.383Z,49.68
2022-10-05T09:27:08.407Z,53.34
2022-10-05T09:28:08.488Z,49.40
2022-10-05T09:29:08.369Z,52.22
2022-10-05T09:30:08.345Z,49.63
2022-10-05T09:31:08.405Z,49.35
2022-10-05T09:32:09.928Z,50.66
2022-10-05T09:33:08.310Z,48.43
2022-10-05T09:34:08.309Z,51.01
2022-10-05T09:35:08.302Z,50.41
2022-10-05T09:36:08.336Z,50.63
2022-10-05T09:37:08.266Z,48.00
2022-10-05T09:38:08.261Z,48.58
2022-10-05T09:39:08.244Z,50.61
2022-10-05T09:40:08.240Z,49.63
2022-10-05T09:41:08.236Z,47.54
2022-10-05T09:42:08.277Z,48.20
2022-10-05T09:43:08.252Z,49.15
2022-10-05T09:44:08.189Z,48.14
2022-10-05T09:45:08.197Z,47.26
2022-10-05T09:46:08.245Z,48.47
2022-10-05T09:47:08.157Z,51.84
2022-10-05T09:48:08.201Z,53.77
2022-10-05T09:49:08.152Z,50.34
2022-10-05T09:50:08.126Z,48.13
2022-10-05T09:51:08.125Z,48.93
2022-10-05T09:52:08.104Z,47.97
2022-10-05T09:53:08.108Z,46.22
2022-10-05T09:54:08.122Z,48.00
2022-10-05T09:55:08.072Z,46.89
2022-10-05T09:56:08.063Z,46.11
2022-10-05T09:57:08.052Z,48.72
2022-10-05T09:58:08.043Z,48.10
2022-10-05T09:59:08.077Z,44.91
2022-10-05T10:01:15.995Z,47.42
2022-10-05T10:02:09.075Z,47.32
2022-10-05T10:03:08.024Z,44.60
2022-10-05T10:04:08.029Z,44.59
2022-10-05T10:05:07.976Z,47.97
2022-10-05T10:06:08.054Z,44.54
2022-10-05T10:07:07.948Z,44.54
2022-10-05T10:08:07.935Z,48.33
2022-10-05T10:09:07.928Z,44.80
2022-10-05T10:10:07.927Z,44.92
2022-10-05T10:11:07.904Z,44.74
2022-10-05T10:12:07.895Z,44.99
2022-10-05T10:13:07.888Z,45.87
2022-10-05T10:14:07.869Z,45.06
2022-10-05T10:15:07.890Z,44.10
2022-10-05T10:16:07.922Z,45.69
2022-10-05T10:17:07.837Z,47.88
2022-10-05T10:18:07.836Z,45.92
2022-10-05T10:19:07.829Z,46.91
2022-10-05T10:20:07.815Z,44.72
2022-10-05T10:21:07.797Z,43.94
2022-10-05T10:22:07.793Z,42.72
2022-10-05T10:23:07.772Z,43.80
2022-10-05T10:24:07.817Z,42.90
2022-10-05T10:25:07.764Z,44.58
2022-10-05T10:26:07.743Z,42.99
2022-10-05T10:27:07.732Z,44.58
2022-10-05T10:28:07.777Z,42.52
2022-10-05T10:29:07.706Z,44.04
2022-10-05T10:30:07.854Z,46.81
2022-10-05T10:31:07.786Z,41.21
2022-10-05T10:32:07.677Z,42.83
2022-10-05T10:33:07.662Z,44.82
2022-10-05T10:34:07.651Z,43.92
2022-10-05T10:35:07.657Z,45.34
2022-10-05T10:36:07.647Z,46.03
2022-10-05T10:37:07.624Z,44.10
2022-10-05T10:38:07.646Z,42.96
2022-10-05T10:39:07.598Z,42.69
2022-10-05T10:40:07.715Z,46.58
2022-10-05T10:41:07.588Z,42.66
2022-10-05T10:42:07.622Z,43.24
2022-10-05T10:43:07.559Z,40.65
2022-10-05T10:44:07.551Z,42.24
2022-10-05T10:45:07.538Z,41.05
2022-10-05T10:46:07.662Z,41.07
2022-10-05T10:47:07.541Z,44.64
2022-10-05T10:48:07.563Z,44.62
2022-10-05T10:49:07.496Z,40.75
2022-10-05T10:50:07.483Z,44.43
2022-10-05T10:51:07.470Z,42.71
2022-10-05T10:52:07.479Z,42.63
2022-10-05T10:53:07.449Z,44.92
2022-10-05T10:54:07.492Z,42.69
2022-10-05T10:55:07.427Z,39.87
2022-10-05T10:56:07.416Z,42.68
2022-10-05T10:57:07.418Z,39.23
2022-10-05T10:58:08.653Z,42.61
2022-10-05T10:59:07.382Z,41.39
2022-10-05T11:00:07.501Z,41.89
2022-10-05T11:01:07.362Z,42.49
2022-10-05T11:02:07.423Z,41.93
2022-10-05T11:03:07.452Z,42.55
2022-10-05T11:04:07.344Z,45.26
2022-10-05T11:05:07.317Z,43.13
2022-10-05T11:06:07.361Z,43.13
2022-10-05T11:07:07.301Z,41.43
2022-10-05T11:08:07.303Z,44.86
2022-10-05T11:09:07.271Z,42.82
2022-10-05T11:10:07.268Z,41.03
2022-10-05T11:11:07.264Z,40.23
2022-10-05T11:12:07.244Z,42.74
2022-10-05T11:13:07.244Z,45.92
2022-10-05T11:14:07.223Z,39.59
2022-10-05T11:15:07.240Z,40.30
2022-10-05T11:17:07.192Z,42.11
2022-10-05T11:18:07.211Z,44.59
2022-10-05T11:19:07.202Z,39.39
2022-10-05T11:20:07.194Z,40.91
2022-10-05T11:21:07.144Z,42.32
2022-10-05T11:22:07.132Z,39.79
2022-10-05T11:23:07.121Z,40.30
2022-10-05T11:24:07.193Z,39.72
2022-10-05T11:25:07.105Z,41.09
2022-10-05T11:26:07.307Z,40.00
2022-10-05T11:27:07.084Z,44.59
2022-10-05T11:28:07.109Z,43.87
2022-10-05T11:29:07.104Z,42.47
2022-10-05T11:30:07.121Z,40.58
2022-10-05T11:31:07.084Z,43.33
2022-10-05T11:32:07.025Z,40.47
2022-10-05T11:33:07.014Z,44.27
2022-10-05T11:34:07.015Z,44.43
2022-10-05T11:35:07.031Z,40.95
2022-10-05T11:36:07.064Z,42.25
2022-10-05T11:37:06.967Z,44.45
2022-10-05T11:38:06.957Z,43.13
2022-10-05T11:39:06.948Z,43.75
2022-10-05T11:40:06.940Z,42.63
2022-10-05T11:41:06.938Z,39.78
2022-10-05T11:42:06.973Z,42.95
2022-10-05T11:43:06.904Z,40.45
2022-10-05T11:44:07.191Z,44.63
2022-10-05T11:45:06.885Z,40.45
2022-10-05T11:46:06.935Z,40.67
2022-10-05T11:47:06.876Z,42.68
2022-10-05T11:48:06.906Z,42.40
2022-10-05T11:49:06.842Z,42.02
2022-10-05T11:50:06.827Z,44.57
2022-10-05T11:51:06.946Z,40.45
2022-10-05T11:52:06.821Z,40.04
2022-10-05T11:53:06.794Z,39.82
2022-10-05T11:54:06.796Z,40.92
2022-10-05T11:55:11.673Z,39.86
2022-10-05T11:56:07.775Z,41.53
2022-10-05T11:57:06.754Z,42.63
2022-10-05T11:58:06.755Z,41.96
2022-10-05T11:59:06.734Z,42.18
2022-10-05T12:00:06.721Z,43.67
2022-10-05T12:01:06.755Z,43.73
2022-10-05T12:02:06.700Z,39.86
2022-10-05T12:03:06.854Z,42.35
2022-10-05T12:04:06.784Z,43.45
2022-10-05T12:05:06.673Z,43.83
2022-10-05T12:06:06.729Z,42.63
2022-10-05T12:07:06.694Z,41.44
2022-10-05T12:08:06.633Z,42.85
2022-10-05T12:09:06.625Z,44.53
2022-10-05T12:10:06.607Z,42.81
2022-10-05T12:11:06.605Z,40.75
2022-10-05T12:12:06.629Z,42.85
2022-10-05T12:13:06.579Z,41.27
2022-10-05T12:14:06.570Z,40.58
2022-10-05T12:15:06.560Z,43.37
2022-10-05T12:16:06.684Z,42.77
2022-10-05T12:17:06.535Z,41.27
2022-10-05T12:18:06.586Z,39.89
2022-10-05T12:19:06.514Z,39.69
2022-10-05T12:20:06.513Z,40.11
2022-10-05T12:21:06.496Z,41.49
2022-10-05T12:22:06.491Z,42.19
2022-10-05T12:23:06.491Z,42.87
2022-10-05T12:24:06.512Z,41.16
2022-10-05T12:25:06.503Z,38.48
2022-10-05T12:26:06.437Z,40.47
2022-10-05T12:27:06.429Z,42.27
2022-10-05T12:28:06.451Z,40.88
2022-10-05T12:29:06.407Z,40.58
2022-10-05T12:30:06.452Z,40.45
2022-10-05T12:31:06.445Z,43.07
2022-10-05T12:32:06.381Z,42.85
2022-10-05T12:33:06.360Z,44.73
2022-10-05T12:34:06.361Z,40.52
2022-10-05T12:35:06.336Z,40.40
2022-10-05T12:36:06.376Z,41.19
2022-10-05T12:37:06.326Z,41.50
2022-10-05T12:38:06.307Z,42.49
2022-10-05T12:39:06.348Z,43.09
2022-10-05T12:40:06.306Z,43.19
2022-10-05T12:41:06.283Z,42.59
2022-10-05T12:42:06.320Z,41.19
2022-10-05T12:43:06.261Z,42.29
2022-10-05T12:44:06.254Z,42.59
2022-10-05T12:45:06.241Z,40.89
2022-10-05T12:46:06.283Z,41.60
2022-10-05T12:47:06.221Z,41.61
2022-10-05T12:48:06.250Z,40.64
2022-10-05T12:49:06.185Z,40.28
2022-10-05T12:50:06.181Z,41.09
2022-10-05T12:51:06.180Z,40.67
2022-10-05T12:52:06.154Z,39.58
2022-10-05T12:53:06.144Z,44.65
2022-10-05T12:54:06.194Z,41.66